sensor_id;sensor_type;location;lat;lon;timestamp;P1;durP1;ratioP1;P2;durP2;ratioP2
54881;SDS011;40775;51.448;4.742;2023-04-03T00:01:19;3.80;;;2.00;;
54881;SDS011;40775;51.448;4.742;2023-04-03T00:03:46;4.65;;;2.13;;
54881;SDS011;40775;51.448;4.742;2023-04-03T00:06:14;4.43;;;1.90;;
54881;SDS011;40775;51.448;4.742;2023-04-03T00:08:41;4.18;;;2.15;;
54881;SDS011;40775;51.448;4.742;2023-04-03T00:11:08;4.13;;;2.00;;
54881;SDS011;40775;51.448;4.742;2023-04-03T00:13:36;5.57;;;1.95;;
54881;SDS011;40775;51.448;4.742;2023-04-03T00:16:04;6.15;;;2.20;;
54881;SDS011;40775;51.448;4.742;2023-04-03T00:18:33;4.30;;;1.98;;
54881;SDS011;40775;51.448;4.742;2023-04-03T00:21:01;4.00;;;1.58;;
54881;SDS011;40775;51.448;4.742;2023-04-03T00:23:28;4.63;;;1.50;;
54881;SDS011;40775;51.448;4.742;2023-04-03T00:25:55;3.85;;;2.22;;
54881;SDS011;40775;51.448;4.742;2023-04-03T00:28:23;3.22;;;1.55;;
54881;SDS011;40775;51.448;4.742;2023-04-03T00:30:50;3.83;;;1.75;;
54881;SDS011;40775;51.448;4.742;2023-04-03T00:33:17;4.45;;;2.13;;
54881;SDS011;40775;51.448;4.742;2023-04-03T00:35:48;3.42;;;1.65;;
54881;SDS011;40775;51.448;4.742;2023-04-03T00:38:16;3.83;;;2.00;;
54881;SDS011;40775;51.448;4.742;2023-04-03T00:40:44;3.20;;;1.73;;
54881;SDS011;40775;51.448;4.742;2023-04-03T00:43:15;4.35;;;1.98;;
54881;SDS011;40775;51.448;4.742;2023-04-03T00:45:52;2.95;;;1.63;;
54881;SDS011;40775;51.448;4.742;2023-04-03T00:50:56;5.07;;;1.52;;
54881;SDS011;40775;51.448;4.742;2023-04-03T00:53:25;4.35;;;2.10;;
54881;SDS011;40775;51.448;4.742;2023-04-03T00:56:04;3.88;;;1.85;;
54881;SDS011;40775;51.448;4.742;2023-04-03T00:58:40;4.10;;;2.10;;
54881;SDS011;40775;51.448;4.742;2023-04-03T01:01:18;4.53;;;1.88;;
54881;SDS011;40775;51.448;4.742;2023-04-03T01:03:50;3.88;;;2.10;;
54881;SDS011;40775;51.448;4.742;2023-04-03T01:06:19;4.63;;;1.95;;
54881;SDS011;40775;51.448;4.742;2023-04-03T01:08:52;3.17;;;1.42;;
54881;SDS011;40775;51.448;4.742;2023-04-03T01:11:20;5.60;;;1.98;;
54881;SDS011;40775;51.448;4.742;2023-04-03T01:13:48;3.47;;;2.05;;
54881;SDS011;40775;51.448;4.742;2023-04-03T01:16:15;4.75;;;2.17;;
54881;SDS011;40775;51.448;4.742;2023-04-03T01:18:42;3.72;;;1.58;;
54881;SDS011;40775;51.448;4.742;2023-04-03T01:26:53;3.30;;;1.75;;
54881;SDS011;40775;51.448;4.742;2023-04-03T01:29:21;3.97;;;1.58;;
54881;SDS011;40775;51.448;4.742;2023-04-03T01:31:52;5.00;;;2.30;;
54881;SDS011;40775;51.448;4.742;2023-04-03T01:34:24;5.72;;;2.55;;
54881;SDS011;40775;51.448;4.742;2023-04-03T01:36:52;3.42;;;1.73;;
54881;SDS011;40775;51.448;4.742;2023-04-03T01:39:19;3.00;;;1.48;;
54881;SDS011;40775;51.448;4.742;2023-04-03T01:41:47;5.80;;;2.10;;
54881;SDS011;40775;51.448;4.742;2023-04-03T01:44:15;4.22;;;2.00;;
54881;SDS011;40775;51.448;4.742;2023-04-03T01:46:42;3.50;;;1.95;;
54881;SDS011;40775;51.448;4.742;2023-04-03T01:49:09;5.50;;;2.60;;
54881;SDS011;40775;51.448;4.742;2023-04-03T01:51:36;6.65;;;1.98;;
54881;SDS011;40775;51.448;4.742;2023-04-03T01:54:03;3.55;;;2.13;;
54881;SDS011;40775;51.448;4.742;2023-04-03T01:56:30;3.33;;;1.92;;
54881;SDS011;40775;51.448;4.742;2023-04-03T01:58:57;3.10;;;1.52;;
54881;SDS011;40775;51.448;4.742;2023-04-03T02:01:24;4.03;;;1.73;;
54881;SDS011;40775;51.448;4.742;2023-04-03T02:03:52;3.63;;;2.25;;
54881;SDS011;40775;51.448;4.742;2023-04-03T02:06:19;2.53;;;1.75;;
54881;SDS011;40775;51.448;4.742;2023-04-03T02:08:46;5.03;;;1.52;;
54881;SDS011;40775;51.448;4.742;2023-04-03T02:11:13;4.68;;;1.55;;
54881;SDS011;40775;51.448;4.742;2023-04-03T02:13:40;3.60;;;1.88;;
54881;SDS011;40775;51.448;4.742;2023-04-03T02:16:08;4.00;;;1.55;;
54881;SDS011;40775;51.448;4.742;2023-04-03T02:18:37;3.17;;;1.45;;
54881;SDS011;40775;51.448;4.742;2023-04-03T02:21:05;5.30;;;1.77;;
54881;SDS011;40775;51.448;4.742;2023-04-03T02:23:32;5.00;;;1.77;;
54881;SDS011;40775;51.448;4.742;2023-04-03T02:26:03;2.88;;;1.60;;
54881;SDS011;40775;51.448;4.742;2023-04-03T02:28:32;3.20;;;0.93;;
54881;SDS011;40775;51.448;4.742;2023-04-03T02:30:59;2.97;;;1.23;;
54881;SDS011;40775;51.448;4.742;2023-04-03T02:33:26;2.33;;;1.13;;
54881;SDS011;40775;51.448;4.742;2023-04-03T02:35:54;3.45;;;1.55;;
54881;SDS011;40775;51.448;4.742;2023-04-03T02:38:22;3.88;;;1.58;;
54881;SDS011;40775;51.448;4.742;2023-04-03T02:40:50;2.50;;;1.30;;
54881;SDS011;40775;51.448;4.742;2023-04-03T02:43:18;4.00;;;1.63;;
54881;SDS011;40775;51.448;4.742;2023-04-03T02:45:45;2.40;;;1.48;;
54881;SDS011;40775;51.448;4.742;2023-04-03T02:48:12;2.60;;;1.23;;
54881;SDS011;40775;51.448;4.742;2023-04-03T02:50:41;4.15;;;1.60;;
54881;SDS011;40775;51.448;4.742;2023-04-03T02:53:08;3.45;;;1.67;;
54881;SDS011;40775;51.448;4.742;2023-04-03T02:55:35;2.80;;;1.00;;
54881;SDS011;40775;51.448;4.742;2023-04-03T02:58:02;2.35;;;1.40;;
54881;SDS011;40775;51.448;4.742;2023-04-03T03:00:29;2.97;;;1.30;;
54881;SDS011;40775;51.448;4.742;2023-04-03T03:02:56;2.08;;;1.25;;
54881;SDS011;40775;51.448;4.742;2023-04-03T03:05:23;3.80;;;1.63;;
54881;SDS011;40775;51.448;4.742;2023-04-03T03:07:51;3.08;;;1.27;;
54881;SDS011;40775;51.448;4.742;2023-04-03T03:10:18;2.60;;;1.05;;
54881;SDS011;40775;51.448;4.742;2023-04-03T03:12:45;3.95;;;1.67;;
54881;SDS011;40775;51.448;4.742;2023-04-03T03:15:12;3.03;;;1.25;;
54881;SDS011;40775;51.448;4.742;2023-04-03T03:17:39;2.55;;;1.48;;
54881;SDS011;40775;51.448;4.742;2023-04-03T03:20:06;2.78;;;1.38;;
54881;SDS011;40775;51.448;4.742;2023-04-03T03:22:34;3.13;;;1.25;;
54881;SDS011;40775;51.448;4.742;2023-04-03T03:25:02;3.90;;;1.45;;
54881;SDS011;40775;51.448;4.742;2023-04-03T03:27:30;1.95;;;0.98;;
54881;SDS011;40775;51.448;4.742;2023-04-03T03:29:57;4.68;;;1.67;;
54881;SDS011;40775;51.448;4.742;2023-04-03T03:32:24;3.65;;;1.55;;
54881;SDS011;40775;51.448;4.742;2023-04-03T03:34:51;1.73;;;1.00;;
54881;SDS011;40775;51.448;4.742;2023-04-03T03:37:18;3.65;;;1.48;;
54881;SDS011;40775;51.448;4.742;2023-04-03T03:39:45;3.25;;;1.15;;
54881;SDS011;40775;51.448;4.742;2023-04-03T03:42:12;2.67;;;1.15;;
54881;SDS011;40775;51.448;4.742;2023-04-03T03:44:38;2.75;;;1.23;;
54881;SDS011;40775;51.448;4.742;2023-04-03T03:47:06;1.88;;;1.33;;
54881;SDS011;40775;51.448;4.742;2023-04-03T03:49:35;2.70;;;1.02;;
54881;SDS011;40775;51.448;4.742;2023-04-03T03:52:02;3.53;;;1.45;;
54881;SDS011;40775;51.448;4.742;2023-04-03T03:54:30;1.75;;;1.10;;
54881;SDS011;40775;51.448;4.742;2023-04-03T03:56:57;4.35;;;1.40;;
54881;SDS011;40775;51.448;4.742;2023-04-03T03:59:24;3.30;;;1.23;;
54881;SDS011;40775;51.448;4.742;2023-04-03T04:01:51;3.28;;;1.38;;
54881;SDS011;40775;51.448;4.742;2023-04-03T04:04:18;3.65;;;1.65;;
54881;SDS011;40775;51.448;4.742;2023-04-03T04:06:45;3.90;;;1.33;;
54881;SDS011;40775;51.448;4.742;2023-04-03T04:09:12;3.20;;;1.25;;
54881;SDS011;40775;51.448;4.742;2023-04-03T04:11:39;4.75;;;1.70;;
54881;SDS011;40775;51.448;4.742;2023-04-03T04:14:06;2.28;;;1.23;;
54881;SDS011;40775;51.448;4.742;2023-04-03T04:16:33;2.65;;;1.35;;
54881;SDS011;40775;51.448;4.742;2023-04-03T04:19:01;3.97;;;1.45;;
54881;SDS011;40775;51.448;4.742;2023-04-03T04:21:28;4.40;;;1.67;;
54881;SDS011;40775;51.448;4.742;2023-04-03T04:23:55;1.83;;;0.93;;
54881;SDS011;40775;51.448;4.742;2023-04-03T04:26:22;4.20;;;1.50;;
54881;SDS011;40775;51.448;4.742;2023-04-03T04:28:49;3.47;;;1.27;;
54881;SDS011;40775;51.448;4.742;2023-04-03T04:31:16;3.75;;;1.88;;
54881;SDS011;40775;51.448;4.742;2023-04-03T04:33:43;2.65;;;1.38;;
54881;SDS011;40775;51.448;4.742;2023-04-03T04:36:10;4.50;;;1.70;;
54881;SDS011;40775;51.448;4.742;2023-04-03T04:38:37;2.95;;;1.38;;
54881;SDS011;40775;51.448;4.742;2023-04-03T04:41:04;2.58;;;1.27;;
54881;SDS011;40775;51.448;4.742;2023-04-03T04:43:31;2.00;;;1.05;;
54881;SDS011;40775;51.448;4.742;2023-04-03T04:46:03;2.70;;;1.20;;
54881;SDS011;40775;51.448;4.742;2023-04-03T04:48:33;3.20;;;1.50;;
54881;SDS011;40775;51.448;4.742;2023-04-03T04:51:01;3.13;;;1.48;;
54881;SDS011;40775;51.448;4.742;2023-04-03T04:53:28;2.85;;;0.98;;
54881;SDS011;40775;51.448;4.742;2023-04-03T04:55:55;2.42;;;1.13;;
54881;SDS011;40775;51.448;4.742;2023-04-03T04:58:22;4.68;;;1.63;;
54881;SDS011;40775;51.448;4.742;2023-04-03T05:00:49;2.35;;;1.40;;
54881;SDS011;40775;51.448;4.742;2023-04-03T05:03:23;2.45;;;1.15;;
54881;SDS011;40775;51.448;4.742;2023-04-03T05:05:55;4.53;;;1.60;;
54881;SDS011;40775;51.448;4.742;2023-04-03T05:08:24;3.72;;;1.55;;
54881;SDS011;40775;51.448;4.742;2023-04-03T05:10:51;5.25;;;1.55;;
54881;SDS011;40775;51.448;4.742;2023-04-03T05:13:21;2.40;;;1.10;;
54881;SDS011;40775;51.448;4.742;2023-04-03T05:15:48;1.83;;;1.10;;
54881;SDS011;40775;51.448;4.742;2023-04-03T05:18:15;2.72;;;1.10;;
54881;SDS011;40775;51.448;4.742;2023-04-03T05:20:42;1.27;;;0.68;;
54881;SDS011;40775;51.448;4.742;2023-04-03T05:23:10;3.00;;;1.58;;
54881;SDS011;40775;51.448;4.742;2023-04-03T05:25:37;2.67;;;1.40;;
54881;SDS011;40775;51.448;4.742;2023-04-03T05:28:05;2.22;;;1.48;;
54881;SDS011;40775;51.448;4.742;2023-04-03T05:30:32;3.45;;;1.20;;
54881;SDS011;40775;51.448;4.742;2023-04-03T05:32:59;2.75;;;1.42;;
54881;SDS011;40775;51.448;4.742;2023-04-03T05:35:27;1.65;;;0.75;;
54881;SDS011;40775;51.448;4.742;2023-04-03T05:37:54;1.55;;;1.00;;
54881;SDS011;40775;51.448;4.742;2023-04-03T05:40:21;2.22;;;1.10;;
54881;SDS011;40775;51.448;4.742;2023-04-03T05:42:48;4.38;;;1.60;;
54881;SDS011;40775;51.448;4.742;2023-04-03T05:45:15;3.33;;;1.60;;
54881;SDS011;40775;51.448;4.742;2023-04-03T05:47:42;6.43;;;2.35;;
54881;SDS011;40775;51.448;4.742;2023-04-03T05:50:09;2.80;;;1.48;;
54881;SDS011;40775;51.448;4.742;2023-04-03T05:52:38;0.93;;;0.60;;
54881;SDS011;40775;51.448;4.742;2023-04-03T05:55:10;0.77;;;0.30;;
54881;SDS011;40775;51.448;4.742;2023-04-03T05:57:37;1.92;;;0.47;;
54881;SDS011;40775;51.448;4.742;2023-04-03T06:00:05;0.77;;;0.30;;
54881;SDS011;40775;51.448;4.742;2023-04-03T06:02:35;0.65;;;0.20;;
54881;SDS011;40775;51.448;4.742;2023-04-03T06:05:02;1.45;;;0.57;;
54881;SDS011;40775;51.448;4.742;2023-04-03T06:07:30;1.17;;;0.20;;
54881;SDS011;40775;51.448;4.742;2023-04-03T06:09:57;0.40;;;0.30;;
54881;SDS011;40775;51.448;4.742;2023-04-03T06:12:24;0.10;;;0.10;;
54881;SDS011;40775;51.448;4.742;2023-04-03T06:14:51;1.08;;;0.35;;
54881;SDS011;40775;51.448;4.742;2023-04-03T06:17:18;0.30;;;0.13;;
54881;SDS011;40775;51.448;4.742;2023-04-03T06:19:46;0.43;;;0.28;;
54881;SDS011;40775;51.448;4.742;2023-04-03T06:22:13;0.75;;;0.28;;
54881;SDS011;40775;51.448;4.742;2023-04-03T06:24:41;0.55;;;0.30;;
54881;SDS011;40775;51.448;4.742;2023-04-03T06:27:10;0.63;;;0.20;;
54881;SDS011;40775;51.448;4.742;2023-04-03T06:29:37;0.10;;;0.10;;
54881;SDS011;40775;51.448;4.742;2023-04-03T06:32:04;0.60;;;0.30;;
54881;SDS011;40775;51.448;4.742;2023-04-03T06:34:32;1.58;;;0.30;;
54881;SDS011;40775;51.448;4.742;2023-04-03T06:36:59;0.90;;;0.30;;
54881;SDS011;40775;51.448;4.742;2023-04-03T06:39:26;0.10;;;0.10;;
54881;SDS011;40775;51.448;4.742;2023-04-03T06:41:53;0.57;;;0.20;;
54881;SDS011;40775;51.448;4.742;2023-04-03T06:44:20;0.93;;;0.40;;
54881;SDS011;40775;51.448;4.742;2023-04-03T06:46:47;0.32;;;0.17;;
54881;SDS011;40775;51.448;4.742;2023-04-03T06:49:14;0.20;;;0.17;;
54881;SDS011;40775;51.448;4.742;2023-04-03T06:51:41;0.45;;;0.28;;
54881;SDS011;40775;51.448;4.742;2023-04-03T06:54:08;0.75;;;0.32;;
54881;SDS011;40775;51.448;4.742;2023-04-03T06:56:35;0.28;;;0.28;;
54881;SDS011;40775;51.448;4.742;2023-04-03T06:59:03;0.20;;;0.20;;
54881;SDS011;40775;51.448;4.742;2023-04-03T07:01:30;0.70;;;0.20;;
54881;SDS011;40775;51.448;4.742;2023-04-03T07:03:57;0.65;;;0.22;;
54881;SDS011;40775;51.448;4.742;2023-04-03T07:06:25;1.95;;;0.20;;
54881;SDS011;40775;51.448;4.742;2023-04-03T07:08:55;0.82;;;0.25;;
54881;SDS011;40775;51.448;4.742;2023-04-03T07:11:22;0.60;;;0.28;;
54881;SDS011;40775;51.448;4.742;2023-04-03T07:13:50;0.52;;;0.32;;
54881;SDS011;40775;51.448;4.742;2023-04-03T07:16:17;0.45;;;0.20;;
54881;SDS011;40775;51.448;4.742;2023-04-03T07:18:45;0.15;;;0.10;;
54881;SDS011;40775;51.448;4.742;2023-04-03T07:21:12;0.65;;;0.20;;
54881;SDS011;40775;51.448;4.742;2023-04-03T07:23:39;0.40;;;0.20;;
54881;SDS011;40775;51.448;4.742;2023-04-03T07:26:06;0.30;;;0.20;;
54881;SDS011;40775;51.448;4.742;2023-04-03T07:28:34;0.28;;;0.10;;
54881;SDS011;40775;51.448;4.742;2023-04-03T07:31:04;0.47;;;0.22;;
54881;SDS011;40775;51.448;4.742;2023-04-03T07:33:35;0.45;;;0.17;;
54881;SDS011;40775;51.448;4.742;2023-04-03T07:36:03;0.60;;;0.30;;
54881;SDS011;40775;51.448;4.742;2023-04-03T07:38:36;0.85;;;0.40;;
54881;SDS011;40775;51.448;4.742;2023-04-03T07:41:03;0.47;;;0.20;;
54881;SDS011;40775;51.448;4.742;2023-04-03T07:43:30;0.22;;;0.20;;
54881;SDS011;40775;51.448;4.742;2023-04-03T07:45:58;0.43;;;0.20;;
54881;SDS011;40775;51.448;4.742;2023-04-03T07:48:26;1.23;;;0.45;;
54881;SDS011;40775;51.448;4.742;2023-04-03T07:50:53;0.25;;;0.20;;
54881;SDS011;40775;51.448;4.742;2023-04-03T07:53:25;0.20;;;0.10;;
54881;SDS011;40775;51.448;4.742;2023-04-03T07:55:52;0.50;;;0.28;;
54881;SDS011;40775;51.448;4.742;2023-04-03T07:58:21;1.13;;;0.40;;
54881;SDS011;40775;51.448;4.742;2023-04-03T08:00:48;0.10;;;0.10;;
54881;SDS011;40775;51.448;4.742;2023-04-03T08:03:16;0.20;;;0.20;;
54881;SDS011;40775;51.448;4.742;2023-04-03T08:05:45;1.23;;;0.35;;
54881;SDS011;40775;51.448;4.742;2023-04-03T08:08:16;0.45;;;0.28;;
54881;SDS011;40775;51.448;4.742;2023-04-03T08:10:53;0.10;;;0.10;;
54881;SDS011;40775;51.448;4.742;2023-04-03T08:13:21;2.35;;;0.10;;
54881;SDS011;40775;51.448;4.742;2023-04-03T08:15:48;0.28;;;0.20;;
54881;SDS011;40775;51.448;4.742;2023-04-03T08:18:17;0.10;;;0.10;;
54881;SDS011;40775;51.448;4.742;2023-04-03T08:20:47;0.57;;;0.10;;
54881;SDS011;40775;51.448;4.742;2023-04-03T08:23:14;0.15;;;0.10;;
54881;SDS011;40775;51.448;4.742;2023-04-03T08:25:45;1.77;;;0.50;;
54881;SDS011;40775;51.448;4.742;2023-04-03T08:28:12;0.30;;;0.13;;
54881;SDS011;40775;51.448;4.742;2023-04-03T08:30:39;0.20;;;0.10;;
54881;SDS011;40775;51.448;4.742;2023-04-03T08:33:08;0.00;;;0.00;;
54881;SDS011;40775;51.448;4.742;2023-04-03T08:35:40;0.10;;;0.10;;
54881;SDS011;40775;51.448;4.742;2023-04-03T08:38:09;0.20;;;0.17;;
54881;SDS011;40775;51.448;4.742;2023-04-03T08:40:37;0.13;;;0.10;;
54881;SDS011;40775;51.448;4.742;2023-04-03T08:46:02;0.60;;;0.20;;
54881;SDS011;40775;51.448;4.742;2023-04-03T08:48:38;0.05;;;0.05;;
54881;SDS011;40775;51.448;4.742;2023-04-03T08:51:13;0.43;;;0.20;;
54881;SDS011;40775;51.448;4.742;2023-04-03T08:53:45;0.70;;;0.20;;
54881;SDS011;40775;51.448;4.742;2023-04-03T08:56:29;0.30;;;0.20;;
54881;SDS011;40775;51.448;4.742;2023-04-03T08:59:06;0.20;;;0.20;;
54881;SDS011;40775;51.448;4.742;2023-04-03T09:01:40;0.30;;;0.00;;
54881;SDS011;40775;51.448;4.742;2023-04-03T09:04:12;0.10;;;0.10;;
54881;SDS011;40775;51.448;4.742;2023-04-03T09:06:42;0.30;;;0.20;;
54881;SDS011;40775;51.448;4.742;2023-04-03T09:23:21;0.32;;;0.13;;
54881;SDS011;40775;51.448;4.742;2023-04-03T09:25:57;0.85;;;0.30;;
54881;SDS011;40775;51.448;4.742;2023-04-03T09:28:34;0.20;;;0.20;;
54881;SDS011;40775;51.448;4.742;2023-04-03T09:31:22;0.85;;;0.20;;
54881;SDS011;40775;51.448;4.742;2023-04-03T09:33:54;0.20;;;0.20;;
54881;SDS011;40775;51.448;4.742;2023-04-03T09:36:38;0.10;;;0.10;;
54881;SDS011;40775;51.448;4.742;2023-04-03T09:39:13;0.30;;;0.10;;
54881;SDS011;40775;51.448;4.742;2023-04-03T09:41:57;0.13;;;0.13;;
54881;SDS011;40775;51.448;4.742;2023-04-03T09:44:37;0.20;;;0.20;;
54881;SDS011;40775;51.448;4.742;2023-04-03T09:52:40;0.13;;;0.10;;
54881;SDS011;40775;51.448;4.742;2023-04-03T09:57:53;0.40;;;0.22;;
54881;SDS011;40775;51.448;4.742;2023-04-03T10:00:28;0.77;;;0.10;;
54881;SDS011;40775;51.448;4.742;2023-04-03T10:03:08;0.15;;;0.10;;
54881;SDS011;40775;51.448;4.742;2023-04-03T10:06:09;1.05;;;0.40;;
54881;SDS011;40775;51.448;4.742;2023-04-03T10:09:00;0.47;;;0.10;;
54881;SDS011;40775;51.448;4.742;2023-04-03T10:11:59;0.35;;;0.15;;
54881;SDS011;40775;51.448;4.742;2023-04-03T10:14:57;0.65;;;0.10;;
54881;SDS011;40775;51.448;4.742;2023-04-03T10:17:36;0.52;;;0.15;;
54881;SDS011;40775;51.448;4.742;2023-04-03T10:28:45;1.30;;;0.40;;
54881;SDS011;40775;51.448;4.742;2023-04-03T10:34:40;0.20;;;0.20;;
54881;SDS011;40775;51.448;4.742;2023-04-03T10:37:30;0.30;;;0.20;;
54881;SDS011;40775;51.448;4.742;2023-04-03T10:40:30;0.90;;;0.22;;
54881;SDS011;40775;51.448;4.742;2023-04-03T10:43:25;0.15;;;0.05;;
54881;SDS011;40775;51.448;4.742;2023-04-03T10:54:14;0.10;;;0.08;;
54881;SDS011;40775;51.448;4.742;2023-04-03T10:57:08;0.45;;;0.10;;
54881;SDS011;40775;51.448;4.742;2023-04-03T11:05:18;0.10;;;0.10;;
54881;SDS011;40775;51.448;4.742;2023-04-03T11:08:24;1.10;;;0.30;;
54881;SDS011;40775;51.448;4.742;2023-04-03T11:22:13;1.33;;;0.43;;
54881;SDS011;40775;51.448;4.742;2023-04-03T11:33:13;0.00;;;0.00;;
54881;SDS011;40775;51.448;4.742;2023-04-03T11:36:07;0.20;;;0.00;;
54881;SDS011;40775;51.448;4.742;2023-04-03T11:38:51;0.22;;;0.08;;
54881;SDS011;40775;51.448;4.742;2023-04-03T11:41:27;0.32;;;0.17;;
54881;SDS011;40775;51.448;4.742;2023-04-03T11:43:59;0.05;;;0.03;;
54881;SDS011;40775;51.448;4.742;2023-04-03T11:46:56;0.28;;;0.13;;
54881;SDS011;40775;51.448;4.742;2023-04-03T11:55:56;0.30;;;0.20;;
54881;SDS011;40775;51.448;4.742;2023-04-03T12:11:14;0.20;;;0.20;;
54881;SDS011;40775;51.448;4.742;2023-04-03T12:19:27;0.00;;;0.00;;
54881;SDS011;40775;51.448;4.742;2023-04-03T12:22:05;0.00;;;0.00;;
54881;SDS011;40775;51.448;4.742;2023-04-03T12:24:37;0.40;;;0.20;;
54881;SDS011;40775;51.448;4.742;2023-04-03T12:44:01;0.45;;;0.20;;
54881;SDS011;40775;51.448;4.742;2023-04-03T12:46:59;0.90;;;0.10;;
54881;SDS011;40775;51.448;4.742;2023-04-03T12:51:55;0.00;;;0.00;;
54881;SDS011;40775;51.448;4.742;2023-04-03T12:54:23;0.70;;;0.10;;
54881;SDS011;40775;51.448;4.742;2023-04-03T12:57:21;1.02;;;0.30;;
54881;SDS011;40775;51.448;4.742;2023-04-03T12:59:53;0.55;;;0.20;;
54881;SDS011;40775;51.448;4.742;2023-04-03T13:04:55;0.38;;;0.25;;
54881;SDS011;40775;51.448;4.742;2023-04-03T13:07:29;0.33;;;0.23;;
54881;SDS011;40775;51.448;4.742;2023-04-03T13:12:52;0.28;;;0.10;;
54881;SDS011;40775;51.448;4.742;2023-04-03T13:15:29;0.57;;;0.40;;
54881;SDS011;40775;51.448;4.742;2023-04-03T13:18:20;1.05;;;0.20;;
54881;SDS011;40775;51.448;4.742;2023-04-03T13:21:01;0.22;;;0.05;;
54881;SDS011;40775;51.448;4.742;2023-04-03T13:23:44;0.10;;;0.10;;
54881;SDS011;40775;51.448;4.742;2023-04-03T13:26:18;0.10;;;0.10;;
54881;SDS011;40775;51.448;4.742;2023-04-03T13:28:48;0.55;;;0.30;;
54881;SDS011;40775;51.448;4.742;2023-04-03T13:31:21;0.40;;;0.15;;
54881;SDS011;40775;51.448;4.742;2023-04-03T13:34:11;0.40;;;0.00;;
54881;SDS011;40775;51.448;4.742;2023-04-03T13:36:54;0.30;;;0.20;;
54881;SDS011;40775;51.448;4.742;2023-04-03T13:39:29;0.45;;;0.00;;
54881;SDS011;40775;51.448;4.742;2023-04-03T13:42:00;0.80;;;0.13;;
54881;SDS011;40775;51.448;4.742;2023-04-03T13:47:46;0.63;;;0.25;;
54881;SDS011;40775;51.448;4.742;2023-04-03T13:50:16;0.17;;;0.10;;
54881;SDS011;40775;51.448;4.742;2023-04-03T13:52:53;0.17;;;0.13;;
54881;SDS011;40775;51.448;4.742;2023-04-03T13:55:30;1.10;;;0.30;;
54881;SDS011;40775;51.448;4.742;2023-04-03T14:03:19;0.10;;;0.10;;
54881;SDS011;40775;51.448;4.742;2023-04-03T14:05:58;0.30;;;0.13;;
54881;SDS011;40775;51.448;4.742;2023-04-03T14:08:27;0.13;;;0.10;;
54881;SDS011;40775;51.448;4.742;2023-04-03T14:11:09;0.45;;;0.35;;
54881;SDS011;40775;51.448;4.742;2023-04-03T14:13:42;0.28;;;0.20;;
54881;SDS011;40775;51.448;4.742;2023-04-03T14:16:12;0.00;;;0.00;;
54881;SDS011;40775;51.448;4.742;2023-04-03T14:18:44;0.10;;;0.10;;
54881;SDS011;40775;51.448;4.742;2023-04-03T14:21:12;0.10;;;0.00;;
54881;SDS011;40775;51.448;4.742;2023-04-03T14:23:41;0.10;;;0.10;;
54881;SDS011;40775;51.448;4.742;2023-04-03T14:26:16;0.30;;;0.10;;
54881;SDS011;40775;51.448;4.742;2023-04-03T14:28:51;0.30;;;0.20;;
54881;SDS011;40775;51.448;4.742;2023-04-03T14:31:20;1.52;;;0.22;;
54881;SDS011;40775;51.448;4.742;2023-04-03T14:33:48;0.00;;;0.00;;
54881;SDS011;40775;51.448;4.742;2023-04-03T14:36:25;0.20;;;0.13;;
54881;SDS011;40775;51.448;4.742;2023-04-03T14:38:54;0.68;;;0.30;;
54881;SDS011;40775;51.448;4.742;2023-04-03T14:41:23;0.50;;;0.20;;
54881;SDS011;40775;51.448;4.742;2023-04-03T14:43:52;0.30;;;0.00;;
54881;SDS011;40775;51.448;4.742;2023-04-03T14:46:41;0.10;;;0.05;;
54881;SDS011;40775;51.448;4.742;2023-04-03T14:49:23;0.85;;;0.13;;
54881;SDS011;40775;51.448;4.742;2023-04-03T14:54:23;0.20;;;0.20;;
54881;SDS011;40775;51.448;4.742;2023-04-03T14:56:55;2.40;;;0.40;;
54881;SDS011;40775;51.448;4.742;2023-04-03T14:59:26;1.17;;;0.30;;
54881;SDS011;40775;51.448;4.742;2023-04-03T15:01:54;5.47;;;1.15;;
54881;SDS011;40775;51.448;4.742;2023-04-03T15:04:21;3.83;;;0.98;;
54881;SDS011;40775;51.448;4.742;2023-04-03T15:06:48;0.95;;;0.28;;
54881;SDS011;40775;51.448;4.742;2023-04-03T15:09:21;1.33;;;0.63;;
54881;SDS011;40775;51.448;4.742;2023-04-03T15:11:52;3.85;;;1.05;;
54881;SDS011;40775;51.448;4.742;2023-04-03T15:14:21;3.85;;;1.40;;
54881;SDS011;40775;51.448;4.742;2023-04-03T15:17:02;2.58;;;0.88;;
54881;SDS011;40775;51.448;4.742;2023-04-03T15:19:38;3.53;;;1.23;;
54881;SDS011;40775;51.448;4.742;2023-04-03T15:22:06;3.75;;;0.80;;
54881;SDS011;40775;51.448;4.742;2023-04-03T15:24:36;5.60;;;1.10;;
54881;SDS011;40775;51.448;4.742;2023-04-03T15:27:03;2.65;;;0.93;;
54881;SDS011;40775;51.448;4.742;2023-04-03T15:29:30;2.95;;;0.85;;
54881;SDS011;40775;51.448;4.742;2023-04-03T15:31:57;6.20;;;0.75;;
54881;SDS011;40775;51.448;4.742;2023-04-03T15:34:24;2.58;;;0.68;;
54881;SDS011;40775;51.448;4.742;2023-04-03T15:36:51;2.35;;;1.00;;
54881;SDS011;40775;51.448;4.742;2023-04-03T15:39:21;1.52;;;0.50;;
54881;SDS011;40775;51.448;4.742;2023-04-03T15:41:49;1.73;;;0.52;;
54881;SDS011;40775;51.448;4.742;2023-04-03T15:44:18;1.80;;;0.68;;
54881;SDS011;40775;51.448;4.742;2023-04-03T15:46:45;1.95;;;0.77;;
54881;SDS011;40775;51.448;4.742;2023-04-03T15:49:18;2.37;;;0.80;;
54881;SDS011;40775;51.448;4.742;2023-04-03T15:51:46;0.75;;;0.40;;
54881;SDS011;40775;51.448;4.742;2023-04-03T15:54:13;1.95;;;0.85;;
54881;SDS011;40775;51.448;4.742;2023-04-03T15:56:41;1.90;;;0.65;;
54881;SDS011;40775;51.448;4.742;2023-04-03T15:59:08;1.65;;;1.00;;
54881;SDS011;40775;51.448;4.742;2023-04-03T16:01:36;1.88;;;1.08;;
54881;SDS011;40775;51.448;4.742;2023-04-03T16:04:04;3.00;;;1.08;;
54881;SDS011;40775;51.448;4.742;2023-04-03T16:06:33;2.13;;;0.77;;
54881;SDS011;40775;51.448;4.742;2023-04-03T16:09:01;1.35;;;0.70;;
54881;SDS011;40775;51.448;4.742;2023-04-03T16:11:28;0.82;;;0.50;;
54881;SDS011;40775;51.448;4.742;2023-04-03T16:13:56;1.35;;;0.55;;
54881;SDS011;40775;51.448;4.742;2023-04-03T16:16:23;1.23;;;0.68;;
54881;SDS011;40775;51.448;4.742;2023-04-03T16:18:53;0.80;;;0.43;;
54881;SDS011;40775;51.448;4.742;2023-04-03T16:21:22;0.70;;;0.45;;
54881;SDS011;40775;51.448;4.742;2023-04-03T16:23:49;2.35;;;0.73;;
54881;SDS011;40775;51.448;4.742;2023-04-03T16:26:17;2.25;;;0.43;;
54881;SDS011;40775;51.448;4.742;2023-04-03T16:28:44;1.75;;;0.73;;
54881;SDS011;40775;51.448;4.742;2023-04-03T16:31:14;6.10;;;1.65;;
54881;SDS011;40775;51.448;4.742;2023-04-03T16:33:41;4.55;;;2.22;;
54881;SDS011;40775;51.448;4.742;2023-04-03T16:36:08;1.83;;;0.70;;
54881;SDS011;40775;51.448;4.742;2023-04-03T16:38:35;2.45;;;0.82;;
54881;SDS011;40775;51.448;4.742;2023-04-03T16:41:02;1.60;;;0.80;;
54881;SDS011;40775;51.448;4.742;2023-04-03T16:43:31;1.58;;;0.60;;
54881;SDS011;40775;51.448;4.742;2023-04-03T16:45:59;0.70;;;0.25;;
54881;SDS011;40775;51.448;4.742;2023-04-03T16:48:29;1.73;;;0.80;;
54881;SDS011;40775;51.448;4.742;2023-04-03T16:50:56;1.00;;;0.63;;
54881;SDS011;40775;51.448;4.742;2023-04-03T16:53:23;1.30;;;0.90;;
54881;SDS011;40775;51.448;4.742;2023-04-03T16:55:51;2.53;;;0.90;;
54881;SDS011;40775;51.448;4.742;2023-04-03T16:58:19;1.85;;;0.63;;
54881;SDS011;40775;51.448;4.742;2023-04-03T17:00:49;2.40;;;0.65;;
54881;SDS011;40775;51.448;4.742;2023-04-03T17:03:17;5.10;;;0.80;;
54881;SDS011;40775;51.448;4.742;2023-04-03T17:05:46;1.90;;;0.93;;
54881;SDS011;40775;51.448;4.742;2023-04-03T17:08:15;2.50;;;0.95;;
54881;SDS011;40775;51.448;4.742;2023-04-03T17:10:44;1.92;;;0.90;;
54881;SDS011;40775;51.448;4.742;2023-04-03T17:13:11;1.08;;;0.57;;
54881;SDS011;40775;51.448;4.742;2023-04-03T17:15:38;4.00;;;0.82;;
54881;SDS011;40775;51.448;4.742;2023-04-03T17:18:06;1.23;;;0.50;;
54881;SDS011;40775;51.448;4.742;2023-04-03T17:20:33;1.90;;;0.80;;
54881;SDS011;40775;51.448;4.742;2023-04-03T17:23:02;4.95;;;2.10;;
54881;SDS011;40775;51.448;4.742;2023-04-03T17:25:29;2.92;;;1.13;;
54881;SDS011;40775;51.448;4.742;2023-04-03T17:27:57;1.10;;;0.40;;